createdAt,value
2022-08-12T00:00:56.546Z,100.00
2022-08-12T00:02:04.184Z,100.00
2022-08-12T00:03:07.023Z,100.00
2022-08-12T00:04:14.050Z,100.00
2022-08-12T00:05:23.311Z,100.00
2022-08-12T00:06:32.261Z,100.00
2022-08-12T00:07:36.714Z,100.00
2022-08-12T00:08:40.768Z,100.00
2022-08-12T00:09:45.796Z,100.00
2022-08-12T00:10:51.684Z,100.00
2022-08-12T00:11:55.797Z,100.00
2022-08-12T00:12:59.841Z,100.00
2022-08-12T00:14:03.986Z,100.00
2022-08-12T00:15:08.875Z,100.00
2022-08-12T00:16:15.163Z,100.00
2022-08-12T00:17:23.149Z,100.00
2022-08-12T00:18:28.622Z,100.00
2022-08-12T00:19:33.921Z,100.00
2022-08-12T00:20:40.402Z,100.00
2022-08-12T00:21:46.663Z,100.00
2022-08-12T00:22:52.967Z,100.00
2022-08-12T00:23:57.679Z,100.00
2022-08-12T00:25:02.836Z,100.00
2022-08-12T00:26:23.598Z,100.00
2022-08-12T00:27:14.340Z,100.00
2022-08-12T00:28:18.757Z,100.00
2022-08-12T00:29:22.885Z,100.00
2022-08-12T00:30:27.613Z,100.00
2022-08-12T00:31:33.164Z,100.00
2022-08-12T00:37:00.953Z,100.00
2022-08-12T00:38:04.190Z,100.00
2022-08-12T00:39:08.461Z,100.00
2022-08-12T00:40:14.339Z,100.00
2022-08-12T00:41:19.984Z,100.00
2022-08-12T00:42:27.168Z,100.00
2022-08-12T00:43:32.529Z,100.00
2022-08-12T00:44:37.081Z,100.00
2022-08-12T00:45:44.570Z,100.00
2022-08-12T00:46:52.825Z,100.00
2022-08-12T00:47:57.167Z,100.00
2022-08-12T00:49:02.095Z,100.00
2022-08-12T00:50:07.096Z,100.00
2022-08-12T00:51:11.322Z,100.00
2022-08-12T00:52:16.144Z,100.00
2022-08-12T00:53:22.153Z,100.00
2022-08-12T00:54:26.260Z,100.00
2022-08-12T00:55:30.670Z,100.00
2022-08-12T00:56:35.593Z,100.00
2022-08-12T00:57:42.662Z,100.00
2022-08-12T00:58:48.477Z,100.00
2022-08-12T00:59:58.157Z,100.00
2022-08-12T01:01:10.448Z,100.00
2022-08-12T01:02:18.667Z,100.00
2022-08-12T01:03:23.113Z,100.00
2022-08-12T01:04:29.676Z,100.00
2022-08-12T01:05:37.553Z,100.00
2022-08-12T01:06:42.929Z,100.00
2022-08-12T01:07:48.873Z,100.00
2022-08-12T01:08:53.592Z,100.00
2022-08-12T01:09:57.946Z,100.00
2022-08-12T01:11:07.482Z,100.00
2022-08-12T01:12:13.821Z,100.00
2022-08-12T01:13:20.739Z,100.00
2022-08-12T01:14:25.166Z,100.00
2022-08-12T01:15:29.727Z,100.00
2022-08-12T01:16:34.738Z,100.00
2022-08-12T01:17:40.727Z,100.00
2022-08-12T01:18:45.935Z,100.00
2022-08-12T01:19:54.664Z,100.00
2022-08-12T01:21:04.880Z,100.00
2022-08-12T01:22:17.073Z,100.00
2022-08-12T01:23:26.595Z,100.00
2022-08-12T01:24:42.297Z,100.00
2022-08-12T01:25:56.399Z,100.00
2022-08-12T01:26:56.625Z,100.00
2022-08-12T01:28:02.750Z,100.00
2022-08-12T01:29:08.164Z,100.00
2022-08-12T01:30:15.460Z,100.00
2022-08-12T01:31:24.607Z,100.00
2022-08-12T01:32:31.090Z,100.00
2022-08-12T01:33:54.683Z,100.00
2022-08-12T01:35:04.619Z,100.00
2022-08-12T01:36:11.450Z,100.00
2022-08-12T01:37:18.477Z,100.00
2022-08-12T01:38:29.854Z,100.00
2022-08-12T01:39:33.892Z,100.00
2022-08-12T01:40:44.993Z,100.00
2022-08-12T01:41:53.585Z,100.00
2022-08-12T01:42:58.644Z,100.00
2022-08-12T01:44:04.426Z,100.00
2022-08-12T01:45:09.348Z,100.00
2022-08-12T01:46:31.597Z,100.00
2022-08-12T01:47:50.526Z,100.00
2022-08-12T01:49:15.804Z,100.00
2022-08-12T01:50:43.212Z,100.00
2022-08-12T01:52:15.938Z,100.00
2022-08-12T01:53:01.180Z,100.00
2022-08-12T01:54:09.339Z,100.00
2022-08-12T01:55:17.682Z,100.00
2022-08-12T01:56:27.972Z,100.00
2022-08-12T01:57:59.517Z,100.00
2022-08-12T01:58:50.719Z,100.00
2022-08-12T02:00:03.564Z,100.00
2022-08-12T02:01:11.472Z,100.00
2022-08-12T02:02:21.405Z,100.00
2022-08-12T02:03:50.651Z,100.00
2022-08-12T02:05:30.394Z,100.00
2022-08-12T02:06:54.739Z,100.00
2022-08-12T02:08:34.595Z,100.00
2022-08-12T02:11:26.652Z,100.00
2022-08-12T02:12:54.656Z,100.00
2022-08-12T02:14:21.082Z,100.00
2022-08-12T02:17:11.452Z,100.00
2022-08-12T02:18:36.242Z,100.00
2022-08-12T02:19:48.852Z,100.00
2022-08-12T02:21:07.977Z,100.00
2022-08-12T02:22:28.687Z,100.00
2022-08-12T02:23:35.880Z,100.00
2022-08-12T02:24:44.419Z,100.00
2022-08-12T02:25:50.558Z,100.00
2022-08-12T02:26:56.794Z,100.00
2022-08-12T02:28:01.406Z,100.00
2022-08-12T02:29:08.124Z,100.00
2022-08-12T02:30:16.383Z,100.00
2022-08-12T02:31:20.874Z,100.00
2022-08-12T02:32:25.536Z,100.00
2022-08-12T02:33:30.657Z,100.00
2022-08-12T02:34:37.563Z,100.00
2022-08-12T02:35:44.876Z,100.00
2022-08-12T02:36:51.525Z,100.00
2022-08-12T02:37:59.699Z,100.00
2022-08-12T02:39:04.748Z,100.00
2022-08-12T02:40:12.045Z,100.00
2022-08-12T02:41:20.819Z,100.00
2022-08-12T02:42:29.513Z,100.00
2022-08-12T02:43:46.578Z,100.00
2022-08-12T02:44:53.241Z,100.00
2022-08-12T02:46:08.325Z,100.00
2022-08-12T02:47:57.118Z,100.00
2022-08-12T02:48:22.380Z,100.00
2022-08-12T02:49:35.105Z,100.00
2022-08-12T02:50:42.105Z,100.00
2022-08-12T02:51:46.137Z,100.00
2022-08-12T02:52:51.523Z,100.00
2022-08-12T02:54:05.271Z,100.00
2022-08-12T02:55:11.723Z,100.00
2022-08-12T02:56:18.306Z,100.00
2022-08-12T02:57:23.309Z,100.00
2022-08-12T02:58:33.287Z,100.00
2022-08-12T02:59:35.264Z,100.00
2022-08-12T03:00:40.702Z,100.00
2022-08-12T03:01:48.575Z,100.00
2022-08-12T03:02:54.732Z,100.00
2022-08-12T03:04:03.301Z,100.00
2022-08-12T03:05:09.123Z,100.00
2022-08-12T03:06:19.454Z,100.00
2022-08-12T03:07:35.750Z,100.00
2022-08-12T03:08:42.392Z,100.00
2022-08-12T03:10:03.717Z,100.00
2022-08-12T03:11:01.737Z,100.00
2022-08-12T03:12:08.984Z,100.00
2022-08-12T03:13:17.521Z,100.00
2022-08-12T03:14:24.278Z,100.00
2022-08-12T03:15:28.351Z,100.00
2022-08-12T03:16:33.562Z,100.00
2022-08-12T03:18:25.466Z,100.00
2022-08-12T03:19:23.386Z,100.00
2022-08-12T03:20:28.598Z,100.00
2022-08-12T03:21:55.386Z,100.00
2022-08-12T03:22:46.100Z,100.00
2022-08-12T03:23:50.764Z,100.00
2022-08-12T03:24:58.882Z,100.00
2022-08-12T03:26:03.623Z,100.00
2022-08-12T03:27:10.812Z,100.00
2022-08-12T03:28:23.722Z,100.00
2022-08-12T03:29:24.051Z,100.00
2022-08-12T03:30:31.706Z,100.00
2022-08-12T03:31:35.950Z,100.00
2022-08-12T03:32:41.991Z,100.00
2022-08-12T03:34:00.600Z,100.00
2022-08-12T03:34:56.601Z,100.00
2022-08-12T03:36:02.182Z,100.00
2022-08-12T03:37:06.910Z,100.00
2022-08-12T03:38:11.839Z,100.00
2022-08-12T03:39:18.417Z,100.00
2022-08-12T03:40:23.361Z,100.00
2022-08-12T03:41:30.344Z,100.00
2022-08-12T03:42:38.701Z,100.00
2022-08-12T03:43:48.520Z,100.00
2022-08-12T03:45:20.861Z,100.00
2022-08-12T03:46:28.451Z,100.00
2022-08-12T03:47:43.174Z,100.00
2022-08-12T03:48:48.819Z,100.00
2022-08-12T03:49:54.653Z,100.00
2022-08-12T03:51:01.779Z,100.00
2022-08-12T03:52:06.737Z,100.00
2022-08-12T03:53:10.980Z,100.00
2022-08-12T03:54:15.322Z,100.00
2022-08-12T03:55:19.655Z,100.00
2022-08-12T03:56:26.082Z,100.00
2022-08-12T03:57:32.783Z,100.00
2022-08-12T03:58:38.747Z,100.00
2022-08-12T03:59:44.350Z,100.00
2022-08-12T04:00:50.300Z,100.00
2022-08-12T04:01:56.335Z,100.00
2022-08-12T04:03:01.863Z,100.00
2022-08-12T04:04:11.443Z,100.00
2022-08-12T04:05:15.597Z,100.00
2022-08-12T04:06:34.706Z,100.00
2022-08-12T04:07:58.066Z,100.00
2022-08-12T04:08:41.562Z,100.00
2022-08-12T04:09:46.698Z,100.00
2022-08-12T04:10:50.926Z,100.00
2022-08-12T04:11:55.044Z,100.00
2022-08-12T04:13:00.595Z,100.00
2022-08-12T04:14:13.460Z,100.00
2022-08-12T04:15:19.817Z,100.00
2022-08-12T04:16:25.487Z,100.00
2022-08-12T04:17:34.635Z,100.00
2022-08-12T04:18:38.911Z,100.00
2022-08-12T04:19:47.002Z,100.00
2022-08-12T04:20:53.027Z,100.00
2022-08-12T04:22:01.734Z,100.00
2022-08-12T04:23:06.824Z,100.00
2022-08-12T04:24:12.901Z,100.00
2022-08-12T04:25:17.349Z,99.97
2022-08-12T04:26:21.877Z,99.97
2022-08-12T04:27:25.946Z,97.74
2022-08-12T04:28:29.971Z,97.74
2022-08-12T04:30:30.032Z,96.18
2022-08-12T04:30:42.781Z,94.21
2022-08-12T04:31:48.971Z,92.98
2022-08-12T04:32:56.038Z,92.41
2022-08-12T04:34:02.894Z,92.41
2022-08-12T04:35:08.715Z,91.27
2022-08-12T04:36:14.555Z,90.93
2022-08-12T04:37:18.765Z,89.90
2022-08-12T04:38:25.803Z,89.90
2022-08-12T04:39:30.370Z,88.43
2022-08-12T04:40:35.466Z,88.43
2022-08-12T04:41:40.653Z,87.29
2022-08-12T04:42:46.364Z,86.93
2022-08-12T04:44:00.528Z,86.05
2022-08-12T04:44:57.692Z,86.92
2022-08-12T04:46:06.621Z,86.37
2022-08-12T04:47:15.523Z,85.55
2022-08-12T04:48:20.446Z,85.10
2022-08-12T04:49:27.258Z,85.10
2022-08-12T04:50:35.897Z,83.42
2022-08-12T04:51:38.203Z,83.81
2022-08-12T04:52:42.807Z,83.81
2022-08-12T04:53:47.375Z,81.99
2022-08-12T04:54:54.089Z,81.14
2022-08-12T04:55:58.438Z,81.57
2022-08-12T04:57:05.635Z,82.33
2022-08-12T04:59:47.908Z,83.01
2022-08-12T05:00:03.227Z,82.26
2022-08-12T05:00:45.509Z,83.11
2022-08-12T05:01:54.014Z,82.51
2022-08-12T05:03:04.585Z,82.51
2022-08-12T05:04:09.130Z,82.59
2022-08-12T05:05:20.702Z,82.01
2022-08-12T05:06:27.212Z,81.65
2022-08-12T05:07:31.442Z,81.65
2022-08-12T05:08:36.080Z,81.02
2022-08-12T05:10:00.425Z,80.33
2022-08-12T05:10:47.885Z,80.79
2022-08-12T05:11:54.150Z,81.43
2022-08-12T05:13:02.287Z,82.40
2022-08-12T05:14:09.281Z,82.94
2022-08-12T05:15:27.634Z,82.94
2022-08-12T05:16:29.963Z,83.59
2022-08-12T05:17:28.142Z,83.59
2022-08-12T05:18:38.373Z,83.22
2022-08-12T05:19:41.876Z,82.21
2022-08-12T05:20:49.416Z,82.25
2022-08-12T05:21:53.454Z,81.05
2022-08-12T05:24:04.402Z,80.24
2022-08-12T05:24:23.311Z,80.24
2022-08-12T05:25:34.544Z,80.44
2022-08-12T05:26:38.715Z,79.34
2022-08-12T05:27:55.363Z,79.06
2022-08-12T05:28:51.560Z,79.06
2022-08-12T05:30:05.701Z,79.48
2022-08-12T05:31:02.873Z,78.21
2022-08-12T05:32:09.772Z,78.92
2022-08-12T05:33:16.144Z,78.26
2022-08-12T05:34:23.805Z,78.26
2022-08-12T05:35:28.076Z,77.99
2022-08-12T05:36:35.018Z,77.47
2022-08-12T05:37:44.401Z,78.10
2022-08-12T05:38:47.825Z,77.62
2022-08-12T05:39:51.868Z,78.29
2022-08-12T05:40:56.220Z,79.32
2022-08-12T05:42:00.472Z,79.86
2022-08-12T05:43:06.396Z,80.76
2022-08-12T05:44:11.766Z,80.76
2022-08-12T05:45:15.830Z,79.14
2022-08-12T05:46:23.950Z,79.38
2022-08-12T05:47:40.650Z,79.38
2022-08-12T05:48:43.455Z,77.97
2022-08-12T05:49:47.012Z,79.23
2022-08-12T05:50:52.649Z,79.23
2022-08-12T05:51:56.881Z,79.81
2022-08-12T05:53:07.155Z,78.75
2022-08-12T05:54:12.137Z,78.75
2022-08-12T05:55:16.561Z,80.12
2022-08-12T05:56:26.274Z,79.14
2022-08-12T05:57:30.338Z,79.14
2022-08-12T05:58:34.322Z,77.97
2022-08-12T05:59:38.525Z,79.30
2022-08-12T06:00:46.526Z,79.74
2022-08-12T06:02:11.787Z,79.99
2022-08-12T06:03:00.693Z,79.38
2022-08-12T06:04:06.881Z,79.38
2022-08-12T06:05:13.127Z,80.37
2022-08-12T06:06:20.221Z,80.23
2022-08-12T06:07:59.810Z,80.10
2022-08-12T06:08:33.691Z,80.21
2022-08-12T06:09:39.375Z,80.06
2022-08-12T06:10:43.757Z,79.81
2022-08-12T06:12:04.213Z,79.81
2022-08-12T06:12:53.586Z,79.61
2022-08-12T06:13:57.766Z,78.65
2022-08-12T06:15:02.879Z,79.09
2022-08-12T06:16:08.111Z,78.72
2022-08-12T06:17:15.703Z,78.98
2022-08-12T06:18:29.237Z,78.68
2022-08-12T06:20:28.088Z,78.68
2022-08-12T06:20:45.634Z,79.39
2022-08-12T06:21:51.223Z,80.92
2022-08-12T06:23:04.259Z,80.75
2022-08-12T06:24:05.233Z,81.67
2022-08-12T06:25:17.540Z,81.13
2022-08-12T06:26:19.236Z,81.39
2022-08-12T06:27:23.399Z,81.39
2022-08-12T06:28:52.548Z,81.93
2022-08-12T06:30:08.139Z,81.93
2022-08-12T06:31:24.315Z,83.21
2022-08-12T06:31:55.455Z,83.21
2022-08-12T06:33:11.641Z,82.59
2022-08-12T06:35:23.932Z,81.96
2022-08-12T06:35:26.297Z,81.96
2022-08-12T06:36:21.989Z,81.77
2022-08-12T06:37:26.339Z,80.63
2022-08-12T06:38:31.214Z,80.80
2022-08-12T06:39:37.573Z,80.80
2022-08-12T06:42:04.843Z,81.31
2022-08-12T06:43:07.906Z,81.15
2022-08-12T06:44:07.925Z,81.19
2022-08-12T06:45:47.438Z,81.12
2022-08-12T06:46:32.153Z,81.12
2022-08-12T06:49:07.528Z,81.36
2022-08-12T06:50:13.702Z,81.36
2022-08-12T06:51:20.837Z,82.06
2022-08-12T06:52:36.331Z,82.06
2022-08-12T06:53:35.809Z,80.80
2022-08-12T06:54:49.691Z,81.99
2022-08-12T06:58:04.459Z,82.82
2022-08-12T06:58:30.178Z,82.85
2022-08-12T06:59:35.872Z,82.85
2022-08-12T07:00:43.524Z,83.51
2022-08-12T07:01:51.216Z,83.70
2022-08-12T07:02:58.375Z,83.70
2022-08-12T07:04:26.379Z,84.29
2022-08-12T07:05:10.324Z,83.95
2022-08-12T07:06:32.844Z,83.48
2022-08-12T07:07:29.148Z,83.48
2022-08-12T07:08:38.818Z,83.72
2022-08-12T07:11:15.524Z,84.13
2022-08-12T07:12:21.297Z,83.22
2022-08-12T07:14:02.353Z,83.22
2022-08-12T07:14:42.871Z,83.25
2022-08-12T07:15:45.365Z,83.25
2022-08-12T07:16:50.934Z,82.71
2022-08-12T07:17:56.961Z,82.84
2022-08-12T07:19:01.109Z,83.05
2022-08-12T07:20:08.761Z,83.05
2022-08-12T07:21:13.472Z,83.16
2022-08-12T07:22:19.102Z,82.53
2022-08-12T07:23:23.294Z,82.53
2022-08-12T07:24:27.421Z,81.76
2022-08-12T07:25:40.576Z,81.76
2022-08-12T07:28:04.262Z,81.59
2022-08-12T07:29:00.171Z,82.05
2022-08-12T07:30:05.493Z,81.12
2022-08-12T07:31:10.324Z,81.49
2022-08-12T07:32:16.240Z,81.49
2022-08-12T07:33:22.919Z,80.84
2022-08-12T07:34:33.845Z,81.63
2022-08-12T07:35:40.895Z,81.36
2022-08-12T07:38:15.650Z,80.57
2022-08-12T07:39:50.763Z,81.71
2022-08-12T07:40:48.606Z,81.71
2022-08-12T07:41:54.201Z,80.52
2022-08-12T07:42:58.320Z,79.75
2022-08-12T07:44:08.103Z,79.60
2022-08-12T07:45:13.540Z,79.59
2022-08-12T07:46:20.705Z,80.04
2022-08-12T07:47:26.485Z,80.12
2022-08-12T07:48:36.320Z,80.12
2022-08-12T07:50:04.909Z,79.84
2022-08-12T07:50:46.318Z,79.84
2022-08-12T07:51:50.418Z,80.53
2022-08-12T07:52:54.506Z,80.53
2022-08-12T07:54:03.046Z,79.42
2022-08-12T07:55:10.352Z,79.42
2022-08-12T07:56:15.571Z,78.81
2022-08-12T07:57:19.797Z,78.81
2022-08-12T07:58:27.073Z,79.58
2022-08-12T07:59:31.202Z,79.29
2022-08-12T08:00:40.199Z,78.64
2022-08-12T08:01:44.324Z,77.29
2022-08-12T08:02:48.711Z,77.00
2022-08-12T08:03:54.164Z,77.00
2022-08-12T08:05:05.009Z,76.61
2022-08-12T08:06:18.897Z,75.46
2022-08-12T08:07:27.377Z,77.00
2022-08-12T08:08:31.155Z,77.00
2022-08-12T08:09:36.738Z,75.29
2022-08-12T08:10:44.877Z,76.89
2022-08-12T08:11:53.146Z,75.69
2022-08-12T08:12:58.898Z,75.06
2022-08-12T08:14:04.604Z,76.39
2022-08-12T08:15:12.182Z,74.81
2022-08-12T08:16:16.741Z,75.68
2022-08-12T08:17:23.500Z,75.90
2022-08-12T08:18:27.799Z,75.90
2022-08-12T08:19:32.023Z,75.70
2022-08-12T08:20:43.451Z,75.19
2022-08-12T08:21:49.052Z,75.93
2022-08-12T08:22:57.736Z,75.93
2022-08-12T08:24:05.398Z,75.63
2022-08-12T08:25:36.789Z,76.40
2022-08-12T08:27:03.216Z,77.03
2022-08-12T08:27:26.927Z,77.03
2022-08-12T08:28:32.595Z,77.01
2022-08-12T08:29:39.689Z,76.05
2022-08-12T08:30:46.410Z,77.09
2022-08-12T08:32:00.753Z,77.54
2022-08-12T08:33:00.171Z,77.54
2022-08-12T08:34:49.273Z,77.26
2022-08-12T08:35:13.114Z,78.36
2022-08-12T08:36:23.752Z,78.36
2022-08-12T08:37:29.802Z,78.28
2022-08-12T08:38:35.083Z,78.28
2022-08-12T08:39:38.952Z,76.75
2022-08-12T08:40:45.966Z,77.59
2022-08-12T08:42:16.789Z,77.59
2022-08-12T08:42:55.757Z,77.49
2022-08-12T08:43:59.887Z,77.57
2022-08-12T08:45:07.093Z,77.67
2022-08-12T08:46:11.695Z,77.67
2022-08-12T08:47:15.732Z,77.25
2022-08-12T08:48:22.010Z,76.60
2022-08-12T08:49:26.000Z,76.60
2022-08-12T08:50:31.857Z,75.96
2022-08-12T08:51:39.195Z,76.03
2022-08-12T08:52:44.418Z,75.11
2022-08-12T08:53:52.895Z,76.02
2022-08-12T08:54:55.941Z,76.02
2022-08-12T08:56:04.981Z,75.83
2022-08-12T08:57:11.904Z,75.56
2022-08-12T08:58:17.562Z,73.77
2022-08-12T08:59:46.832Z,73.77
2022-08-12T09:00:49.614Z,73.48
2022-08-12T09:01:53.741Z,73.75
2022-08-12T09:02:59.301Z,73.33
2022-08-12T09:05:10.074Z,74.96
2022-08-12T09:06:01.739Z,75.49
2022-08-12T09:06:39.755Z,75.49
2022-08-12T09:07:51.972Z,73.52
2022-08-12T09:08:57.684Z,74.40
2022-08-12T09:11:10.621Z,74.82
2022-08-12T09:12:27.608Z,73.82
2022-08-12T09:13:29.272Z,73.42
2022-08-12T09:14:33.909Z,74.31
2022-08-12T09:15:39.053Z,74.31
2022-08-12T09:16:45.029Z,74.96
2022-08-12T09:17:55.311Z,75.09
2022-08-12T09:19:05.117Z,75.09
2022-08-12T09:20:09.097Z,74.19
2022-08-12T09:21:13.555Z,74.13
2022-08-12T09:22:21.043Z,74.13
2022-08-12T09:23:56.950Z,74.32
2022-08-12T09:24:32.427Z,74.03
2022-08-12T09:25:43.584Z,73.45
2022-08-12T09:26:59.794Z,73.85
2022-08-12T09:28:04.275Z,73.85
2022-08-12T09:29:12.255Z,74.03
2022-08-12T09:30:14.128Z,74.61
2022-08-12T09:32:05.916Z,74.66
2022-08-12T09:32:29.430Z,75.47
2022-08-12T09:34:29.235Z,75.47
2022-08-12T09:34:37.974Z,74.21
2022-08-12T09:35:43.001Z,75.36
2022-08-12T09:36:57.565Z,75.36
2022-08-12T09:38:00.833Z,75.64
2022-08-12T09:40:02.082Z,75.61
2022-08-12T09:41:01.321Z,75.82
2022-08-12T09:42:35.179Z,76.68
2022-08-12T09:42:36.459Z,76.41
2022-08-12T09:43:28.806Z,76.41
2022-08-12T09:44:39.026Z,75.66
2022-08-12T09:46:06.582Z,76.44
2022-08-12T09:46:49.678Z,76.44
2022-08-12T09:48:04.117Z,76.53
2022-08-12T09:49:13.598Z,76.84
2022-08-12T09:50:22.682Z,76.81
2022-08-12T09:52:34.390Z,76.55
2022-08-12T09:53:43.384Z,76.55
2022-08-12T09:54:50.177Z,76.94
2022-08-12T09:56:57.407Z,76.94
2022-08-12T09:58:46.900Z,77.01
2022-08-12T09:58:54.763Z,76.88
2022-08-12T10:00:12.975Z,76.79
2022-08-12T10:00:28.986Z,76.80
2022-08-12T10:01:35.726Z,76.63
2022-08-12T10:02:44.867Z,75.98
2022-08-12T10:03:55.530Z,76.11
2022-08-12T10:06:32.003Z,76.55
2022-08-12T10:07:40.011Z,76.70
2022-08-12T10:08:38.929Z,76.70
2022-08-12T10:09:58.271Z,76.32
2022-08-12T10:10:50.769Z,76.76
2022-08-12T10:12:11.997Z,76.73
2022-08-12T10:13:07.550Z,76.73
2022-08-12T10:14:13.249Z,76.21
2022-08-12T10:16:00.634Z,76.21
2022-08-12T10:16:26.390Z,75.96
2022-08-12T10:17:32.094Z,75.36
2022-08-12T10:18:51.726Z,73.81
2022-08-12T10:19:51.874Z,73.58
2022-08-12T10:20:57.172Z,73.58
2022-08-12T10:22:02.417Z,74.66
2022-08-12T10:23:07.029Z,73.16
2022-08-12T10:24:15.489Z,72.93
2022-08-12T10:25:21.226Z,72.67
2022-08-12T10:26:37.425Z,72.85
2022-08-12T10:27:39.458Z,73.02
2022-08-12T10:28:38.391Z,73.38
2022-08-12T10:30:40.962Z,73.38
2022-08-12T10:30:59.396Z,74.03
2022-08-12T10:32:22.208Z,72.73
2022-08-12T10:33:03.094Z,72.85
2022-08-12T10:34:26.701Z,72.50
2022-08-12T10:35:17.561Z,71.97
2022-08-12T10:36:36.123Z,71.97
2022-08-12T10:38:34.106Z,73.39
2022-08-12T10:38:41.614Z,73.39
2022-08-12T10:40:06.210Z,71.85
2022-08-12T10:40:49.105Z,71.85
2022-08-12T10:41:58.310Z,70.84
2022-08-12T10:43:02.252Z,71.69
2022-08-12T10:44:06.467Z,71.20
2022-08-12T10:45:14.270Z,71.20
2022-08-12T10:46:18.705Z,69.79
2022-08-12T10:47:26.520Z,71.20
2022-08-12T10:48:34.318Z,71.20
2022-08-12T10:50:02.982Z,70.70
2022-08-12T10:50:58.533Z,70.87
2022-08-12T10:52:34.807Z,69.59
2022-08-12T10:53:09.102Z,69.59
2022-08-12T10:54:13.578Z,70.56
2022-08-12T10:55:17.708Z,70.87
2022-08-12T10:56:23.806Z,71.01
2022-08-12T10:58:15.746Z,71.77
2022-08-12T10:58:37.971Z,71.95
2022-08-12T11:00:29.503Z,73.11
2022-08-12T11:01:25.580Z,73.67
2022-08-12T11:04:22.847Z,74.26
2022-08-12T11:04:24.251Z,74.26
2022-08-12T11:04:24.690Z,74.43
2022-08-12T11:07:05.237Z,75.84
2022-08-12T11:07:05.821Z,75.77
2022-08-12T11:08:34.331Z,75.77
2022-08-12T11:08:36.295Z,76.16
2022-08-12T11:09:41.512Z,74.88
2022-08-12T11:10:45.770Z,74.88
2022-08-12T11:12:35.930Z,74.11
2022-08-12T11:13:00.377Z,74.06
2022-08-12T11:14:03.765Z,74.06
2022-08-12T11:15:18.581Z,74.79
2022-08-12T11:16:22.660Z,74.51
2022-08-12T11:17:43.319Z,76.40
2022-08-12T11:18:30.737Z,76.40
2022-08-12T11:19:36.760Z,75.15
2022-08-12T11:20:43.117Z,75.61
2022-08-12T11:21:58.031Z,75.37
2022-08-12T11:23:03.538Z,75.84
2022-08-12T11:24:06.988Z,76.22
2022-08-12T11:25:12.787Z,76.77
2022-08-12T11:26:21.658Z,76.77
2022-08-12T11:27:34.353Z,75.63
2022-08-12T11:28:34.015Z,75.63
2022-08-12T11:30:05.623Z,76.92
2022-08-12T11:30:53.684Z,76.92
2022-08-12T11:32:02.901Z,76.72
2022-08-12T11:33:12.218Z,77.07
2022-08-12T11:34:51.096Z,77.07
2022-08-12T11:35:16.300Z,77.13
2022-08-12T11:36:22.978Z,77.13
2022-08-12T11:37:29.664Z,77.04
2022-08-12T11:38:33.217Z,77.57
2022-08-12T11:40:43.800Z,78.15
2022-08-12T11:41:49.178Z,76.69
2022-08-12T11:42:56.075Z,76.57
2022-08-12T11:44:36.127Z,77.30
2022-08-12T11:45:11.977Z,77.30
2022-08-12T11:46:19.901Z,76.09
2022-08-12T11:47:24.036Z,76.09
2022-08-12T11:48:28.161Z,76.55
2022-08-12T11:49:33.944Z,76.00
2022-08-12T11:50:42.051Z,76.00
2022-08-12T11:51:45.648Z,75.82
2022-08-12T11:52:56.592Z,76.01
2022-08-12T11:54:01.402Z,75.97
2022-08-12T11:55:04.498Z,75.83
2022-08-12T11:56:11.283Z,74.78
2022-08-12T11:58:10.054Z,74.78
2022-08-12T11:59:27.529Z,74.55
2022-08-12T12:02:01.209Z,74.88
2022-08-12T12:02:43.825Z,75.59
2022-08-12T12:03:50.700Z,75.61
2022-08-12T12:04:55.203Z,75.61
2022-08-12T12:06:00.434Z,74.92
2022-08-12T12:07:07.340Z,75.44
2022-08-12T12:08:37.129Z,75.57
2022-08-12T12:09:17.956Z,75.69
2022-08-12T12:10:24.901Z,75.96
2022-08-12T12:11:48.642Z,75.96
2022-08-12T12:12:37.832Z,76.58
2022-08-12T12:14:08.298Z,75.89
2022-08-12T12:14:55.904Z,74.46
2022-08-12T12:16:00.593Z,74.46
2022-08-12T12:17:04.725Z,73.86
2022-08-12T12:18:30.707Z,73.21
2022-08-12T12:19:30.416Z,73.92
2022-08-12T12:20:37.736Z,73.92
2022-08-12T12:21:47.606Z,73.98
2022-08-12T12:22:50.833Z,73.98
2022-08-12T12:24:00.712Z,74.42
2022-08-12T12:25:13.214Z,74.50
2022-08-12T12:26:18.494Z,74.65
2022-08-12T12:27:15.825Z,72.87
2022-08-12T12:28:36.869Z,72.87
2022-08-12T12:30:17.688Z,73.53
2022-08-12T12:30:32.468Z,73.53
2022-08-12T12:32:06.977Z,72.53
2022-08-12T12:32:44.653Z,72.53
2022-08-12T12:33:58.345Z,73.65
2022-08-12T12:35:14.069Z,74.74
2022-08-12T12:36:20.822Z,75.00
2022-08-12T12:37:27.005Z,75.00
2022-08-12T12:38:25.256Z,73.83
2022-08-12T12:39:29.151Z,74.10
2022-08-12T12:40:39.643Z,74.37
2022-08-12T12:42:43.121Z,74.37
2022-08-12T12:42:56.840Z,73.53
2022-08-12T12:44:03.810Z,73.53
2022-08-12T12:44:59.972Z,73.04
2022-08-12T12:46:04.173Z,73.04
2022-08-12T12:47:28.621Z,74.34
2022-08-12T12:48:18.814Z,72.08
2022-08-12T12:49:26.103Z,71.70
2022-08-12T12:50:35.116Z,71.70
2022-08-12T12:52:11.203Z,70.09
2022-08-12T12:52:42.882Z,70.35
2022-08-12T12:54:07.902Z,69.53
2022-08-12T12:54:54.608Z,69.05
2022-08-12T12:55:59.806Z,69.05
2022-08-12T12:57:05.625Z,69.70
2022-08-12T12:58:15.695Z,70.20
2022-08-12T12:59:34.978Z,70.34
2022-08-12T13:00:26.707Z,71.33
2022-08-12T13:01:31.058Z,71.64
2022-08-12T13:02:37.037Z,71.38
2022-08-12T13:03:48.996Z,70.65
2022-08-12T13:04:46.994Z,70.65
2022-08-12T13:05:53.998Z,69.68
2022-08-12T13:06:59.644Z,69.13
2022-08-12T13:08:35.820Z,69.60
2022-08-12T13:09:25.578Z,69.61
2022-08-12T13:11:44.525Z,69.14
2022-08-12T13:12:13.346Z,69.39
2022-08-12T13:12:52.139Z,69.14
2022-08-12T13:14:08.704Z,70.06
2022-08-12T13:15:03.109Z,70.09
2022-08-12T13:16:07.491Z,69.94
2022-08-12T13:17:14.672Z,69.94
2022-08-12T13:18:19.596Z,70.06
2022-08-12T13:20:37.900Z,70.66
2022-08-12T13:24:14.486Z,70.19
2022-08-12T13:25:23.819Z,71.37
2022-08-12T13:26:28.574Z,71.37
2022-08-12T13:27:43.700Z,71.04
2022-08-12T13:28:53.375Z,71.79
2022-08-12T13:30:04.163Z,70.32
2022-08-12T13:31:08.122Z,70.32
2022-08-12T13:32:19.108Z,71.28
2022-08-12T13:33:17.968Z,71.07
2022-08-12T13:34:33.655Z,71.22
2022-08-12T13:36:02.976Z,71.09
2022-08-12T13:36:39.117Z,71.52
2022-08-12T13:37:55.081Z,70.87
2022-08-12T13:38:58.705Z,71.12
2022-08-12T13:40:13.424Z,72.00
2022-08-12T13:41:31.730Z,72.16
2022-08-12T13:42:48.697Z,72.16
2022-08-12T13:43:42.001Z,72.49
2022-08-12T13:44:48.257Z,72.49
2022-08-12T13:45:53.731Z,72.67
2022-08-12T13:48:07.023Z,73.62
2022-08-12T13:49:53.351Z,73.83
2022-08-12T13:50:21.198Z,74.78
2022-08-12T13:54:11.615Z,75.14
2022-08-12T13:55:24.174Z,75.14
2022-08-12T13:57:11.025Z,75.73
2022-08-12T13:57:47.162Z,75.70
2022-08-12T13:58:48.694Z,75.70
2022-08-12T14:00:00.755Z,75.88
2022-08-12T14:01:02.536Z,76.07
2022-08-12T14:02:24.306Z,76.69
2022-08-12T14:03:22.816Z,76.69
2022-08-12T14:04:29.893Z,77.48
2022-08-12T14:05:39.042Z,77.48
2022-08-12T14:06:44.906Z,77.64
2022-08-12T14:08:03.731Z,77.64
2022-08-12T14:09:15.429Z,77.80
2022-08-12T14:10:19.905Z,78.30
2022-08-12T14:11:28.072Z,78.82
2022-08-12T14:12:32.750Z,78.94
2022-08-12T14:14:05.978Z,78.94
2022-08-12T14:14:45.462Z,79.42
2022-08-12T14:15:53.008Z,80.61
2022-08-12T14:18:32.423Z,80.87
2022-08-12T14:19:48.645Z,80.98
2022-08-12T14:22:08.728Z,80.78
2022-08-12T14:24:04.948Z,80.70
2022-08-12T14:24:27.039Z,81.35
2022-08-12T14:25:35.632Z,81.35
2022-08-12T14:26:39.008Z,82.27
2022-08-12T14:28:02.834Z,81.86
2022-08-12T14:28:57.630Z,83.25
2022-08-12T14:30:05.549Z,83.11
2022-08-12T14:31:18.735Z,83.11
2022-08-12T14:32:18.785Z,83.55
2022-08-12T14:33:26.998Z,83.55
2022-08-12T14:34:37.666Z,84.01
2022-08-12T14:35:46.147Z,84.01
2022-08-12T14:36:50.787Z,83.51
2022-08-12T14:37:58.959Z,84.04
2022-08-12T14:39:39.165Z,84.22
2022-08-12T14:40:27.763Z,84.42
2022-08-12T14:41:36.633Z,84.42
2022-08-12T14:42:39.196Z,85.37
2022-08-12T14:44:04.435Z,85.37
2022-08-12T14:45:01.251Z,85.50
2022-08-12T14:46:15.866Z,85.97
2022-08-12T14:47:16.385Z,85.97
2022-08-12T14:48:24.271Z,86.23
2022-08-12T14:50:33.460Z,85.87
2022-08-12T14:51:03.287Z,87.05
2022-08-12T14:53:13.534Z,87.04
2022-08-12T14:56:57.580Z,85.77
2022-08-12T14:57:33.622Z,86.23